sensor_id;sensor_type;location;lat;lon;timestamp;P1;durP1;ratioP1;P2;durP2;ratioP2
57856;SDS011;43683;48.650;9.290;2022-08-21T00:02:02;5.18;;;3.20;;
57856;SDS011;43683;48.650;9.290;2022-08-21T00:04:28;5.40;;;3.10;;
57856;SDS011;43683;48.650;9.290;2022-08-21T00:06:54;4.38;;;2.60;;
57856;SDS011;43683;48.650;9.290;2022-08-21T00:09:20;3.97;;;2.85;;
57856;SDS011;43683;48.650;9.290;2022-08-21T00:11:46;7.25;;;3.20;;
57856;SDS011;43683;48.650;9.290;2022-08-21T00:14:12;5.93;;;3.30;;
57856;SDS011;43683;48.650;9.290;2022-08-21T00:16:38;5.18;;;3.10;;
57856;SDS011;43683;48.650;9.290;2022-08-21T00:19:05;7.15;;;3.20;;
57856;SDS011;43683;48.650;9.290;2022-08-21T00:21:31;5.07;;;2.80;;
57856;SDS011;43683;48.650;9.290;2022-08-21T00:23:57;4.30;;;2.67;;
57856;SDS011;43683;48.650;9.290;2022-08-21T00:26:22;10.27;;;3.28;;
57856;SDS011;43683;48.650;9.290;2022-08-21T00:28:48;4.18;;;2.95;;
57856;SDS011;43683;48.650;9.290;2022-08-21T00:31:14;5.03;;;2.80;;
57856;SDS011;43683;48.650;9.290;2022-08-21T00:33:40;4.05;;;2.83;;
57856;SDS011;43683;48.650;9.290;2022-08-21T00:36:06;4.47;;;2.72;;
57856;SDS011;43683;48.650;9.290;2022-08-21T00:38:32;5.40;;;3.08;;
57856;SDS011;43683;48.650;9.290;2022-08-21T00:40:59;4.10;;;2.67;;
57856;SDS011;43683;48.650;9.290;2022-08-21T00:43:27;5.60;;;3.60;;
57856;SDS011;43683;48.650;9.290;2022-08-21T00:45:55;7.38;;;3.40;;
57856;SDS011;43683;48.650;9.290;2022-08-21T00:48:22;5.82;;;3.33;;
57856;SDS011;43683;48.650;9.290;2022-08-21T00:50:50;4.50;;;2.97;;
57856;SDS011;43683;48.650;9.290;2022-08-21T00:53:23;5.25;;;3.30;;
57856;SDS011;43683;48.650;9.290;2022-08-21T00:55:49;4.80;;;2.67;;
57856;SDS011;43683;48.650;9.290;2022-08-21T00:58:16;5.35;;;3.05;;
57856;SDS011;43683;48.650;9.290;2022-08-21T01:00:42;4.90;;;3.05;;
57856;SDS011;43683;48.650;9.290;2022-08-21T01:03:11;5.07;;;3.50;;
57856;SDS011;43683;48.650;9.290;2022-08-21T01:05:40;5.18;;;3.20;;
57856;SDS011;43683;48.650;9.290;2022-08-21T01:08:07;6.07;;;3.53;;
57856;SDS011;43683;48.650;9.290;2022-08-21T01:10:34;5.03;;;3.40;;
57856;SDS011;43683;48.650;9.290;2022-08-21T01:13:00;6.50;;;3.42;;
57856;SDS011;43683;48.650;9.290;2022-08-21T01:15:27;5.72;;;3.47;;
57856;SDS011;43683;48.650;9.290;2022-08-21T01:17:56;6.32;;;3.65;;
57856;SDS011;43683;48.650;9.290;2022-08-21T01:20:22;6.45;;;3.88;;
57856;SDS011;43683;48.650;9.290;2022-08-21T01:22:48;6.40;;;3.10;;
57856;SDS011;43683;48.650;9.290;2022-08-21T01:25:15;5.90;;;3.40;;
57856;SDS011;43683;48.650;9.290;2022-08-21T01:30:08;6.43;;;3.33;;
57856;SDS011;43683;48.650;9.290;2022-08-21T01:32:39;5.68;;;3.80;;
57856;SDS011;43683;48.650;9.290;2022-08-21T01:35:06;7.13;;;3.85;;
57856;SDS011;43683;48.650;9.290;2022-08-21T01:37:32;6.30;;;3.55;;
57856;SDS011;43683;48.650;9.290;2022-08-21T01:39:58;6.88;;;3.95;;
57856;SDS011;43683;48.650;9.290;2022-08-21T01:42:23;7.95;;;4.90;;
57856;SDS011;43683;48.650;9.290;2022-08-21T01:44:49;8.48;;;4.40;;
57856;SDS011;43683;48.650;9.290;2022-08-21T01:47:15;9.20;;;4.38;;
57856;SDS011;43683;48.650;9.290;2022-08-21T01:49:42;9.02;;;4.75;;
57856;SDS011;43683;48.650;9.290;2022-08-21T01:52:07;11.00;;;4.82;;
57856;SDS011;43683;48.650;9.290;2022-08-21T01:54:33;7.50;;;4.40;;
57856;SDS011;43683;48.650;9.290;2022-08-21T01:56:59;6.90;;;3.90;;
57856;SDS011;43683;48.650;9.290;2022-08-21T01:59:25;7.70;;;4.10;;
57856;SDS011;43683;48.650;9.290;2022-08-21T02:01:51;6.97;;;4.15;;
57856;SDS011;43683;48.650;9.290;2022-08-21T02:04:19;9.93;;;5.00;;
57856;SDS011;43683;48.650;9.290;2022-08-21T02:06:45;6.32;;;4.00;;
57856;SDS011;43683;48.650;9.290;2022-08-21T02:09:11;8.00;;;4.18;;
57856;SDS011;43683;48.650;9.290;2022-08-21T02:11:38;6.25;;;4.05;;
57856;SDS011;43683;48.650;9.290;2022-08-21T02:14:06;6.65;;;4.22;;
57856;SDS011;43683;48.650;9.290;2022-08-21T02:16:33;6.68;;;4.05;;
57856;SDS011;43683;48.650;9.290;2022-08-21T02:18:59;7.15;;;3.83;;
57856;SDS011;43683;48.650;9.290;2022-08-21T02:21:25;6.53;;;4.00;;
57856;SDS011;43683;48.650;9.290;2022-08-21T02:23:50;7.13;;;4.13;;
57856;SDS011;43683;48.650;9.290;2022-08-21T02:26:16;9.02;;;4.18;;
57856;SDS011;43683;48.650;9.290;2022-08-21T02:28:42;5.68;;;3.78;;
57856;SDS011;43683;48.650;9.290;2022-08-21T02:31:07;8.85;;;4.68;;
57856;SDS011;43683;48.650;9.290;2022-08-21T02:33:33;5.35;;;3.58;;
57856;SDS011;43683;48.650;9.290;2022-08-21T02:35:59;5.78;;;3.50;;
57856;SDS011;43683;48.650;9.290;2022-08-21T02:38:27;9.18;;;4.00;;
57856;SDS011;43683;48.650;9.290;2022-08-21T02:41:03;6.35;;;3.85;;
57856;SDS011;43683;48.650;9.290;2022-08-21T02:43:30;6.30;;;4.15;;
57856;SDS011;43683;48.650;9.290;2022-08-21T02:45:56;7.45;;;4.00;;
57856;SDS011;43683;48.650;9.290;2022-08-21T02:48:24;6.55;;;4.22;;
57856;SDS011;43683;48.650;9.290;2022-08-21T02:50:53;8.50;;;4.05;;
57856;SDS011;43683;48.650;9.290;2022-08-21T02:53:21;7.30;;;3.55;;
57856;SDS011;43683;48.650;9.290;2022-08-21T02:55:48;7.07;;;4.05;;
57856;SDS011;43683;48.650;9.290;2022-08-21T02:58:16;7.57;;;4.30;;
57856;SDS011;43683;48.650;9.290;2022-08-21T03:00:44;8.13;;;4.55;;
57856;SDS011;43683;48.650;9.290;2022-08-21T03:03:10;7.30;;;4.40;;
57856;SDS011;43683;48.650;9.290;2022-08-21T03:05:37;6.63;;;4.38;;
57856;SDS011;43683;48.650;9.290;2022-08-21T03:08:04;8.20;;;4.95;;
57856;SDS011;43683;48.650;9.290;2022-08-21T03:10:34;9.23;;;5.20;;
57856;SDS011;43683;48.650;9.290;2022-08-21T03:13:00;9.40;;;5.00;;
57856;SDS011;43683;48.650;9.290;2022-08-21T03:15:28;8.20;;;4.68;;
57856;SDS011;43683;48.650;9.290;2022-08-21T03:17:55;10.98;;;5.47;;
57856;SDS011;43683;48.650;9.290;2022-08-21T03:20:22;7.43;;;4.78;;
57856;SDS011;43683;48.650;9.290;2022-08-21T03:22:50;8.50;;;4.70;;
57856;SDS011;43683;48.650;9.290;2022-08-21T03:25:16;7.85;;;4.53;;
57856;SDS011;43683;48.650;9.290;2022-08-21T03:27:42;8.38;;;4.82;;
57856;SDS011;43683;48.650;9.290;2022-08-21T03:30:09;10.27;;;4.95;;
57856;SDS011;43683;48.650;9.290;2022-08-21T03:32:35;8.63;;;4.50;;
57856;SDS011;43683;48.650;9.290;2022-08-21T03:35:01;6.95;;;4.30;;
57856;SDS011;43683;48.650;9.290;2022-08-21T03:37:27;6.88;;;4.75;;
57856;SDS011;43683;48.650;9.290;2022-08-21T03:39:53;9.18;;;4.70;;
57856;SDS011;43683;48.650;9.290;2022-08-21T03:42:19;7.70;;;4.35;;
57856;SDS011;43683;48.650;9.290;2022-08-21T03:44:45;6.63;;;4.30;;
57856;SDS011;43683;48.650;9.290;2022-08-21T03:47:11;10.05;;;5.00;;
57856;SDS011;43683;48.650;9.290;2022-08-21T03:49:37;9.15;;;4.18;;
57856;SDS011;43683;48.650;9.290;2022-08-21T03:52:03;9.38;;;4.75;;
57856;SDS011;43683;48.650;9.290;2022-08-21T03:54:28;9.15;;;5.13;;
57856;SDS011;43683;48.650;9.290;2022-08-21T03:56:54;10.35;;;5.55;;
57856;SDS011;43683;48.650;9.290;2022-08-21T03:59:21;8.73;;;4.70;;
57856;SDS011;43683;48.650;9.290;2022-08-21T04:04:23;11.25;;;5.10;;
57856;SDS011;43683;48.650;9.290;2022-08-21T04:06:48;11.55;;;5.38;;
57856;SDS011;43683;48.650;9.290;2022-08-21T04:09:14;10.43;;;5.25;;
57856;SDS011;43683;48.650;9.290;2022-08-21T04:11:40;12.32;;;5.50;;
57856;SDS011;43683;48.650;9.290;2022-08-21T04:14:06;9.25;;;5.47;;
57856;SDS011;43683;48.650;9.290;2022-08-21T04:16:32;8.27;;;5.18;;
57856;SDS011;43683;48.650;9.290;2022-08-21T04:18:57;10.43;;;5.63;;
57856;SDS011;43683;48.650;9.290;2022-08-21T04:21:23;8.82;;;5.55;;
57856;SDS011;43683;48.650;9.290;2022-08-21T04:23:48;7.80;;;4.70;;
57856;SDS011;43683;48.650;9.290;2022-08-21T04:26:14;9.52;;;4.95;;
57856;SDS011;43683;48.650;9.290;2022-08-21T04:28:40;8.07;;;4.97;;
57856;SDS011;43683;48.650;9.290;2022-08-21T04:31:06;8.65;;;4.90;;
57856;SDS011;43683;48.650;9.290;2022-08-21T04:33:33;7.65;;;4.45;;
57856;SDS011;43683;48.650;9.290;2022-08-21T04:35:59;8.65;;;5.03;;
57856;SDS011;43683;48.650;9.290;2022-08-21T04:38:25;9.73;;;4.68;;
57856;SDS011;43683;48.650;9.290;2022-08-21T04:40:51;6.90;;;4.45;;
57856;SDS011;43683;48.650;9.290;2022-08-21T04:43:17;11.60;;;4.95;;
57856;SDS011;43683;48.650;9.290;2022-08-21T04:45:45;8.50;;;5.15;;
57856;SDS011;43683;48.650;9.290;2022-08-21T04:48:13;8.65;;;4.55;;
57856;SDS011;43683;48.650;9.290;2022-08-21T04:53:05;7.35;;;4.80;;
57856;SDS011;43683;48.650;9.290;2022-08-21T04:55:35;8.63;;;5.22;;
57856;SDS011;43683;48.650;9.290;2022-08-21T04:58:02;7.40;;;4.55;;
57856;SDS011;43683;48.650;9.290;2022-08-21T05:00:29;8.85;;;4.65;;
57856;SDS011;43683;48.650;9.290;2022-08-21T05:02:54;7.95;;;4.30;;
57856;SDS011;43683;48.650;9.290;2022-08-21T05:05:23;7.05;;;4.38;;
57856;SDS011;43683;48.650;9.290;2022-08-21T05:07:49;8.45;;;4.78;;
57856;SDS011;43683;48.650;9.290;2022-08-21T05:10:16;6.88;;;4.30;;
57856;SDS011;43683;48.650;9.290;2022-08-21T05:12:42;8.38;;;4.95;;
57856;SDS011;43683;48.650;9.290;2022-08-21T05:15:10;8.82;;;5.43;;
57856;SDS011;43683;48.650;9.290;2022-08-21T05:17:40;9.43;;;4.75;;
57856;SDS011;43683;48.650;9.290;2022-08-21T05:20:06;8.07;;;5.15;;
57856;SDS011;43683;48.650;9.290;2022-08-21T05:22:33;7.72;;;4.70;;
57856;SDS011;43683;48.650;9.290;2022-08-21T05:24:59;9.68;;;5.28;;
57856;SDS011;43683;48.650;9.290;2022-08-21T05:27:24;9.50;;;5.32;;
57856;SDS011;43683;48.650;9.290;2022-08-21T05:29:50;6.90;;;4.50;;
57856;SDS011;43683;48.650;9.290;2022-08-21T05:32:15;8.05;;;5.32;;
57856;SDS011;43683;48.650;9.290;2022-08-21T05:34:42;9.32;;;4.85;;
57856;SDS011;43683;48.650;9.290;2022-08-21T05:37:10;8.85;;;4.32;;
57856;SDS011;43683;48.650;9.290;2022-08-21T05:39:36;6.28;;;4.35;;
57856;SDS011;43683;48.650;9.290;2022-08-21T05:42:01;8.38;;;4.57;;
57856;SDS011;43683;48.650;9.290;2022-08-21T05:44:27;6.93;;;4.00;;
57856;SDS011;43683;48.650;9.290;2022-08-21T05:46:52;6.38;;;4.32;;
57856;SDS011;43683;48.650;9.290;2022-08-21T05:49:18;7.45;;;4.82;;
57856;SDS011;43683;48.650;9.290;2022-08-21T05:51:43;6.97;;;4.80;;
57856;SDS011;43683;48.650;9.290;2022-08-21T05:54:09;7.55;;;4.70;;
57856;SDS011;43683;48.650;9.290;2022-08-21T05:56:35;7.68;;;4.78;;
57856;SDS011;43683;48.650;9.290;2022-08-21T05:59:02;8.27;;;4.65;;
57856;SDS011;43683;48.650;9.290;2022-08-21T06:01:27;9.27;;;5.32;;
57856;SDS011;43683;48.650;9.290;2022-08-21T06:03:53;6.60;;;4.63;;
57856;SDS011;43683;48.650;9.290;2022-08-21T06:06:19;7.85;;;4.97;;
57856;SDS011;43683;48.650;9.290;2022-08-21T06:08:44;11.48;;;6.18;;
57856;SDS011;43683;48.650;9.290;2022-08-21T06:11:10;10.20;;;5.22;;
57856;SDS011;43683;48.650;9.290;2022-08-21T06:13:36;9.20;;;5.63;;
57856;SDS011;43683;48.650;9.290;2022-08-21T06:16:13;9.93;;;4.90;;
57856;SDS011;43683;48.650;9.290;2022-08-21T06:18:41;8.15;;;4.60;;
57856;SDS011;43683;48.650;9.290;2022-08-21T06:21:07;8.30;;;4.88;;
57856;SDS011;43683;48.650;9.290;2022-08-21T06:23:34;7.95;;;4.72;;
57856;SDS011;43683;48.650;9.290;2022-08-21T06:26:03;6.78;;;4.32;;
57856;SDS011;43683;48.650;9.290;2022-08-21T06:28:30;7.28;;;4.68;;
57856;SDS011;43683;48.650;9.290;2022-08-21T06:30:57;7.33;;;4.30;;
57856;SDS011;43683;48.650;9.290;2022-08-21T06:33:23;6.82;;;4.05;;
57856;SDS011;43683;48.650;9.290;2022-08-21T06:35:48;6.82;;;4.07;;
57856;SDS011;43683;48.650;9.290;2022-08-21T06:38:14;7.50;;;4.00;;
57856;SDS011;43683;48.650;9.290;2022-08-21T06:40:40;8.02;;;3.97;;
57856;SDS011;43683;48.650;9.290;2022-08-21T06:43:07;5.97;;;3.20;;
57856;SDS011;43683;48.650;9.290;2022-08-21T06:45:37;6.75;;;4.18;;
57856;SDS011;43683;48.650;9.290;2022-08-21T06:48:03;6.28;;;3.83;;
57856;SDS011;43683;48.650;9.290;2022-08-21T06:50:30;5.72;;;3.70;;
57856;SDS011;43683;48.650;9.290;2022-08-21T06:53:00;5.43;;;3.47;;
57856;SDS011;43683;48.650;9.290;2022-08-21T06:55:31;7.50;;;3.50;;
57856;SDS011;43683;48.650;9.290;2022-08-21T06:57:58;5.05;;;3.42;;
57856;SDS011;43683;48.650;9.290;2022-08-21T07:00:23;4.90;;;3.08;;
57856;SDS011;43683;48.650;9.290;2022-08-21T07:02:49;5.35;;;3.17;;
57856;SDS011;43683;48.650;9.290;2022-08-21T07:05:15;4.40;;;2.95;;
57856;SDS011;43683;48.650;9.290;2022-08-21T07:07:41;8.35;;;3.78;;
57856;SDS011;43683;48.650;9.290;2022-08-21T07:10:06;4.43;;;3.03;;
57856;SDS011;43683;48.650;9.290;2022-08-21T07:12:32;5.25;;;2.92;;
57856;SDS011;43683;48.650;9.290;2022-08-21T07:14:58;4.93;;;3.08;;
57856;SDS011;43683;48.650;9.290;2022-08-21T07:17:23;5.50;;;3.13;;
57856;SDS011;43683;48.650;9.290;2022-08-21T07:19:49;3.67;;;2.88;;
57856;SDS011;43683;48.650;9.290;2022-08-21T07:22:16;3.72;;;2.63;;
57856;SDS011;43683;48.650;9.290;2022-08-21T07:24:44;4.50;;;3.00;;
57856;SDS011;43683;48.650;9.290;2022-08-21T07:27:10;3.97;;;2.95;;
57856;SDS011;43683;48.650;9.290;2022-08-21T07:29:36;5.07;;;2.80;;
57856;SDS011;43683;48.650;9.290;2022-08-21T07:32:02;4.93;;;2.20;;
57856;SDS011;43683;48.650;9.290;2022-08-21T07:34:28;3.67;;;2.65;;
57856;SDS011;43683;48.650;9.290;2022-08-21T07:36:55;3.15;;;2.30;;
57856;SDS011;43683;48.650;9.290;2022-08-21T07:39:21;4.78;;;2.40;;
57856;SDS011;43683;48.650;9.290;2022-08-21T07:41:46;4.07;;;2.40;;
57856;SDS011;43683;48.650;9.290;2022-08-21T07:44:12;6.35;;;2.65;;
57856;SDS011;43683;48.650;9.290;2022-08-21T07:46:38;5.00;;;2.53;;
57856;SDS011;43683;48.650;9.290;2022-08-21T07:49:03;5.22;;;2.45;;
57856;SDS011;43683;48.650;9.290;2022-08-21T07:51:29;4.78;;;2.65;;
57856;SDS011;43683;48.650;9.290;2022-08-21T07:53:56;4.97;;;2.75;;
57856;SDS011;43683;48.650;9.290;2022-08-21T07:56:23;4.60;;;2.45;;
57856;SDS011;43683;48.650;9.290;2022-08-21T07:58:48;3.83;;;2.40;;
57856;SDS011;43683;48.650;9.290;2022-08-21T08:01:14;4.88;;;2.60;;
57856;SDS011;43683;48.650;9.290;2022-08-21T08:03:40;4.25;;;2.30;;
57856;SDS011;43683;48.650;9.290;2022-08-21T08:06:06;4.10;;;2.53;;
57856;SDS011;43683;48.650;9.290;2022-08-21T08:08:36;5.32;;;2.92;;
57856;SDS011;43683;48.650;9.290;2022-08-21T08:11:03;7.80;;;3.22;;
57856;SDS011;43683;48.650;9.290;2022-08-21T08:13:29;4.53;;;3.05;;
57856;SDS011;43683;48.650;9.290;2022-08-21T08:15:54;5.03;;;2.67;;
57856;SDS011;43683;48.650;9.290;2022-08-21T08:18:20;4.70;;;2.47;;
57856;SDS011;43683;48.650;9.290;2022-08-21T08:20:46;4.75;;;2.55;;
57856;SDS011;43683;48.650;9.290;2022-08-21T08:23:12;6.78;;;2.83;;
57856;SDS011;43683;48.650;9.290;2022-08-21T08:28:04;7.85;;;3.20;;
57856;SDS011;43683;48.650;9.290;2022-08-21T08:30:31;4.20;;;2.60;;
57856;SDS011;43683;48.650;9.290;2022-08-21T08:32:56;4.07;;;2.60;;
57856;SDS011;43683;48.650;9.290;2022-08-21T08:35:22;5.78;;;2.88;;
57856;SDS011;43683;48.650;9.290;2022-08-21T08:37:49;6.95;;;3.10;;
57856;SDS011;43683;48.650;9.290;2022-08-21T08:42:59;6.25;;;3.28;;
57856;SDS011;43683;48.650;9.290;2022-08-21T08:45:24;5.45;;;3.30;;
57856;SDS011;43683;48.650;9.290;2022-08-21T08:48:13;6.93;;;3.40;;
57856;SDS011;43683;48.650;9.290;2022-08-21T08:50:44;7.25;;;2.80;;
57856;SDS011;43683;48.650;9.290;2022-08-21T08:53:15;5.47;;;3.33;;
57856;SDS011;43683;48.650;9.290;2022-08-21T08:55:45;5.53;;;2.67;;
57856;SDS011;43683;48.650;9.290;2022-08-21T08:58:12;5.22;;;3.10;;
57856;SDS011;43683;48.650;9.290;2022-08-21T09:00:55;4.20;;;2.80;;
57856;SDS011;43683;48.650;9.290;2022-08-21T09:03:24;4.63;;;2.58;;
57856;SDS011;43683;48.650;9.290;2022-08-21T09:08:38;5.68;;;2.97;;
57856;SDS011;43683;48.650;9.290;2022-08-21T09:11:27;5.95;;;2.78;;
57856;SDS011;43683;48.650;9.290;2022-08-21T09:14:14;4.28;;;2.70;;
57856;SDS011;43683;48.650;9.290;2022-08-21T09:16:54;9.88;;;3.10;;
57856;SDS011;43683;48.650;9.290;2022-08-21T09:20:03;7.55;;;2.90;;
57856;SDS011;43683;48.650;9.290;2022-08-21T09:22:57;6.30;;;2.65;;
57856;SDS011;43683;48.650;9.290;2022-08-21T09:25:48;5.47;;;2.75;;
57856;SDS011;43683;48.650;9.290;2022-08-21T09:28:24;4.80;;;2.63;;
57856;SDS011;43683;48.650;9.290;2022-08-21T09:30:51;5.78;;;2.58;;
57856;SDS011;43683;48.650;9.290;2022-08-21T09:33:20;5.38;;;2.55;;
57856;SDS011;43683;48.650;9.290;2022-08-21T09:35:53;6.00;;;2.58;;
57856;SDS011;43683;48.650;9.290;2022-08-21T09:38:41;5.57;;;2.95;;
57856;SDS011;43683;48.650;9.290;2022-08-21T09:41:16;5.25;;;2.20;;
57856;SDS011;43683;48.650;9.290;2022-08-21T09:43:54;5.18;;;2.50;;
57856;SDS011;43683;48.650;9.290;2022-08-21T09:46:20;6.35;;;2.55;;
57856;SDS011;43683;48.650;9.290;2022-08-21T09:48:49;4.50;;;2.65;;
57856;SDS011;43683;48.650;9.290;2022-08-21T09:51:17;5.28;;;2.30;;
57856;SDS011;43683;48.650;9.290;2022-08-21T09:53:49;5.25;;;2.22;;
57856;SDS011;43683;48.650;9.290;2022-08-21T09:56:25;3.50;;;2.42;;
57856;SDS011;43683;48.650;9.290;2022-08-21T09:59:33;4.32;;;2.28;;
57856;SDS011;43683;48.650;9.290;2022-08-21T10:02:00;5.35;;;2.85;;
57856;SDS011;43683;48.650;9.290;2022-08-21T10:04:32;4.95;;;2.40;;
57856;SDS011;43683;48.650;9.290;2022-08-21T10:07:07;3.47;;;1.95;;
57856;SDS011;43683;48.650;9.290;2022-08-21T10:09:34;5.57;;;2.35;;
57856;SDS011;43683;48.650;9.290;2022-08-21T10:17:48;5.28;;;2.85;;
57856;SDS011;43683;48.650;9.290;2022-08-21T10:20:30;5.50;;;2.40;;
57856;SDS011;43683;48.650;9.290;2022-08-21T10:34:05;7.82;;;2.50;;
57856;SDS011;43683;48.650;9.290;2022-08-21T10:36:44;6.38;;;2.47;;
57856;SDS011;43683;48.650;9.290;2022-08-21T10:39:21;4.03;;;2.10;;
57856;SDS011;43683;48.650;9.290;2022-08-21T10:47:38;4.47;;;2.20;;
57856;SDS011;43683;48.650;9.290;2022-08-21T10:50:15;4.28;;;2.20;;
57856;SDS011;43683;48.650;9.290;2022-08-21T10:52:49;8.68;;;2.30;;
57856;SDS011;43683;48.650;9.290;2022-08-21T10:55:21;4.03;;;1.90;;
57856;SDS011;43683;48.650;9.290;2022-08-21T10:58:01;4.55;;;2.15;;
57856;SDS011;43683;48.650;9.290;2022-08-21T11:00:47;6.68;;;2.20;;
57856;SDS011;43683;48.650;9.290;2022-08-21T11:03:31;4.85;;;2.35;;
57856;SDS011;43683;48.650;9.290;2022-08-21T11:06:04;4.40;;;1.95;;
57856;SDS011;43683;48.650;9.290;2022-08-21T11:08:33;4.45;;;2.00;;
57856;SDS011;43683;48.650;9.290;2022-08-21T11:11:14;4.88;;;2.10;;
57856;SDS011;43683;48.650;9.290;2022-08-21T11:13:53;5.07;;;1.85;;
57856;SDS011;43683;48.650;9.290;2022-08-21T11:16:25;4.53;;;2.50;;
57856;SDS011;43683;48.650;9.290;2022-08-21T11:21:37;5.07;;;2.20;;
57856;SDS011;43683;48.650;9.290;2022-08-21T11:24:12;5.15;;;1.70;;
57856;SDS011;43683;48.650;9.290;2022-08-21T11:29:11;5.95;;;2.13;;
57856;SDS011;43683;48.650;9.290;2022-08-21T11:31:44;5.60;;;2.15;;
57856;SDS011;43683;48.650;9.290;2022-08-21T11:37:44;4.03;;;2.00;;
57856;SDS011;43683;48.650;9.290;2022-08-21T11:40:24;4.38;;;2.15;;
57856;SDS011;43683;48.650;9.290;2022-08-21T11:43:16;3.33;;;1.83;;
57856;SDS011;43683;48.650;9.290;2022-08-21T11:45:45;4.45;;;2.05;;
57856;SDS011;43683;48.650;9.290;2022-08-21T11:51:04;4.32;;;2.17;;
57856;SDS011;43683;48.650;9.290;2022-08-21T11:53:47;5.72;;;1.90;;
57856;SDS011;43683;48.650;9.290;2022-08-21T11:56:24;4.57;;;2.17;;
57856;SDS011;43683;48.650;9.290;2022-08-21T11:58:59;4.55;;;1.85;;
57856;SDS011;43683;48.650;9.290;2022-08-21T12:01:30;4.15;;;2.15;;
57856;SDS011;43683;48.650;9.290;2022-08-21T12:04:06;5.68;;;1.90;;
57856;SDS011;43683;48.650;9.290;2022-08-21T12:06:51;2.65;;;1.48;;
57856;SDS011;43683;48.650;9.290;2022-08-21T12:14:51;4.03;;;2.00;;
57856;SDS011;43683;48.650;9.290;2022-08-21T12:17:34;4.65;;;1.70;;
57856;SDS011;43683;48.650;9.290;2022-08-21T12:22:54;3.90;;;1.70;;
57856;SDS011;43683;48.650;9.290;2022-08-21T12:25:36;4.93;;;1.92;;
57856;SDS011;43683;48.650;9.290;2022-08-21T12:28:22;3.15;;;1.92;;
57856;SDS011;43683;48.650;9.290;2022-08-21T12:30:49;3.20;;;1.75;;
57856;SDS011;43683;48.650;9.290;2022-08-21T12:33:23;5.40;;;2.00;;
57856;SDS011;43683;48.650;9.290;2022-08-21T12:36:11;4.50;;;1.98;;
57856;SDS011;43683;48.650;9.290;2022-08-21T12:41:27;2.85;;;1.52;;
57856;SDS011;43683;48.650;9.290;2022-08-21T12:44:07;4.75;;;1.77;;
57856;SDS011;43683;48.650;9.290;2022-08-21T12:49:16;5.90;;;2.00;;
57856;SDS011;43683;48.650;9.290;2022-08-21T12:52:09;5.70;;;2.10;;
57856;SDS011;43683;48.650;9.290;2022-08-21T12:54:42;3.63;;;2.00;;
57856;SDS011;43683;48.650;9.290;2022-08-21T12:57:09;4.00;;;1.50;;
57856;SDS011;43683;48.650;9.290;2022-08-21T12:59:56;3.28;;;1.73;;
57856;SDS011;43683;48.650;9.290;2022-08-21T13:02:26;3.47;;;1.60;;
57856;SDS011;43683;48.650;9.290;2022-08-21T13:04:57;3.83;;;1.65;;
57856;SDS011;43683;48.650;9.290;2022-08-21T13:07:28;4.25;;;1.50;;
57856;SDS011;43683;48.650;9.290;2022-08-21T13:12:29;3.63;;;1.45;;
57856;SDS011;43683;48.650;9.290;2022-08-21T13:17:23;3.97;;;1.50;;
57856;SDS011;43683;48.650;9.290;2022-08-21T13:20:00;3.15;;;1.50;;
57856;SDS011;43683;48.650;9.290;2022-08-21T13:22:31;3.30;;;1.70;;
57856;SDS011;43683;48.650;9.290;2022-08-21T13:25:00;2.60;;;1.40;;
57856;SDS011;43683;48.650;9.290;2022-08-21T13:30:04;3.28;;;1.52;;
57856;SDS011;43683;48.650;9.290;2022-08-21T13:32:30;3.00;;;1.55;;
57856;SDS011;43683;48.650;9.290;2022-08-21T13:34:58;3.50;;;1.60;;
57856;SDS011;43683;48.650;9.290;2022-08-21T13:37:31;3.55;;;1.70;;
57856;SDS011;43683;48.650;9.290;2022-08-21T13:39:57;3.30;;;1.60;;
57856;SDS011;43683;48.650;9.290;2022-08-21T13:42:22;3.97;;;1.40;;
57856;SDS011;43683;48.650;9.290;2022-08-21T13:47:16;3.35;;;1.65;;
57856;SDS011;43683;48.650;9.290;2022-08-21T13:49:44;3.30;;;1.50;;
57856;SDS011;43683;48.650;9.290;2022-08-21T13:52:18;4.50;;;2.10;;
57856;SDS011;43683;48.650;9.290;2022-08-21T13:54:53;4.90;;;1.48;;
57856;SDS011;43683;48.650;9.290;2022-08-21T13:57:31;3.50;;;1.40;;
57856;SDS011;43683;48.650;9.290;2022-08-21T14:02:46;2.70;;;1.50;;
57856;SDS011;43683;48.650;9.290;2022-08-21T14:05:19;2.45;;;1.70;;
57856;SDS011;43683;48.650;9.290;2022-08-21T14:07:59;2.72;;;1.48;;
57856;SDS011;43683;48.650;9.290;2022-08-21T14:10:27;1.73;;;1.20;;
57856;SDS011;43683;48.650;9.290;2022-08-21T14:15:23;2.72;;;1.42;;
57856;SDS011;43683;48.650;9.290;2022-08-21T14:17:50;2.03;;;1.50;;
57856;SDS011;43683;48.650;9.290;2022-08-21T14:20:29;3.70;;;1.77;;
57856;SDS011;43683;48.650;9.290;2022-08-21T14:22:57;2.80;;;1.48;;
57856;SDS011;43683;48.650;9.290;2022-08-21T14:27:52;3.88;;;1.60;;
57856;SDS011;43683;48.650;9.290;2022-08-21T14:30:22;2.95;;;1.75;;
57856;SDS011;43683;48.650;9.290;2022-08-21T14:32:53;3.22;;;1.60;;
57856;SDS011;43683;48.650;9.290;2022-08-21T14:35:19;3.63;;;1.75;;
57856;SDS011;43683;48.650;9.290;2022-08-21T14:37:46;3.00;;;1.50;;
57856;SDS011;43683;48.650;9.290;2022-08-21T14:40:15;3.92;;;1.52;;
57856;SDS011;43683;48.650;9.290;2022-08-21T14:42:42;3.92;;;1.67;;
57856;SDS011;43683;48.650;9.290;2022-08-21T14:47:40;3.58;;;1.65;;
57856;SDS011;43683;48.650;9.290;2022-08-21T14:50:07;2.00;;;1.42;;
57856;SDS011;43683;48.650;9.290;2022-08-21T14:52:33;4.28;;;1.75;;
57856;SDS011;43683;48.650;9.290;2022-08-21T14:54:59;4.17;;;1.67;;
57856;SDS011;43683;48.650;9.290;2022-08-21T14:57:24;3.83;;;1.80;;
57856;SDS011;43683;48.650;9.290;2022-08-21T14:59:52;4.15;;;1.80;;
57856;SDS011;43683;48.650;9.290;2022-08-21T15:02:17;3.17;;;1.93;;
57856;SDS011;43683;48.650;9.290;2022-08-21T15:04:43;2.33;;;1.60;;
57856;SDS011;43683;48.650;9.290;2022-08-21T15:07:08;4.13;;;1.93;;
57856;SDS011;43683;48.650;9.290;2022-08-21T15:09:34;4.93;;;1.70;;
57856;SDS011;43683;48.650;9.290;2022-08-21T15:12:00;2.40;;;1.47;;
57856;SDS011;43683;48.650;9.290;2022-08-21T15:14:27;3.28;;;1.60;;
57856;SDS011;43683;48.650;9.290;2022-08-21T15:16:54;3.65;;;1.70;;
57856;SDS011;43683;48.650;9.290;2022-08-21T15:19:21;3.42;;;1.50;;
57856;SDS011;43683;48.650;9.290;2022-08-21T15:21:46;3.58;;;1.38;;
57856;SDS011;43683;48.650;9.290;2022-08-21T15:24:12;2.83;;;1.80;;
57856;SDS011;43683;48.650;9.290;2022-08-21T15:26:38;4.77;;;1.80;;
57856;SDS011;43683;48.650;9.290;2022-08-21T15:29:04;2.90;;;1.60;;
57856;SDS011;43683;48.650;9.290;2022-08-21T15:31:31;2.55;;;1.52;;
57856;SDS011;43683;48.650;9.290;2022-08-21T15:33:56;2.63;;;1.53;;
57856;SDS011;43683;48.650;9.290;2022-08-21T15:36:22;3.40;;;1.80;;
57856;SDS011;43683;48.650;9.290;2022-08-21T15:38:48;3.60;;;1.80;;
57856;SDS011;43683;48.650;9.290;2022-08-21T15:41:14;3.20;;;1.48;;
57856;SDS011;43683;48.650;9.290;2022-08-21T15:43:46;5.30;;;1.70;;
57856;SDS011;43683;48.650;9.290;2022-08-21T15:46:15;2.10;;;1.40;;
57856;SDS011;43683;48.650;9.290;2022-08-21T15:48:43;2.40;;;1.35;;
57856;SDS011;43683;48.650;9.290;2022-08-21T15:51:10;3.53;;;1.73;;
57856;SDS011;43683;48.650;9.290;2022-08-21T15:53:37;3.55;;;1.65;;
57856;SDS011;43683;48.650;9.290;2022-08-21T15:56:03;2.53;;;1.40;;
57856;SDS011;43683;48.650;9.290;2022-08-21T15:58:30;2.72;;;1.48;;
57856;SDS011;43683;48.650;9.290;2022-08-21T16:00:58;2.30;;;1.48;;
57856;SDS011;43683;48.650;9.290;2022-08-21T16:03:24;2.10;;;1.40;;
57856;SDS011;43683;48.650;9.290;2022-08-21T16:08:17;3.92;;;1.55;;
57856;SDS011;43683;48.650;9.290;2022-08-21T16:13:19;2.85;;;1.60;;
57856;SDS011;43683;48.650;9.290;2022-08-21T16:15:49;3.53;;;1.27;;
57856;SDS011;43683;48.650;9.290;2022-08-21T16:18:15;2.78;;;1.50;;
57856;SDS011;43683;48.650;9.290;2022-08-21T16:20:42;3.83;;;1.50;;
57856;SDS011;43683;48.650;9.290;2022-08-21T16:23:07;2.83;;;1.80;;
57856;SDS011;43683;48.650;9.290;2022-08-21T16:25:37;1.70;;;1.23;;
57856;SDS011;43683;48.650;9.290;2022-08-21T16:28:04;2.40;;;1.55;;